createdAt,value
2023-01-19T00:01:14.024Z,4.70
2023-01-19T00:04:18.791Z,4.32
2023-01-19T00:07:23.373Z,4.63
2023-01-19T00:10:29.401Z,4.60
2023-01-19T00:13:33.588Z,4.80
2023-01-19T00:16:37.898Z,4.83
2023-01-19T00:19:42.969Z,5.57
2023-01-19T00:22:51.329Z,4.55
2023-01-19T00:25:54.700Z,5.32
2023-01-19T00:28:58.992Z,4.95
2023-01-19T00:32:05.516Z,4.63
2023-01-19T00:35:10.758Z,4.50
2023-01-19T00:38:17.100Z,4.80
2023-01-19T00:41:42.916Z,4.13
2023-01-19T00:44:49.838Z,4.20
2023-01-19T00:47:59.071Z,3.60
2023-01-19T00:51:07.482Z,3.05
2023-01-19T00:54:19.349Z,3.70
2023-01-19T00:57:25.496Z,3.40
2023-01-19T01:00:33.847Z,3.13
2023-01-19T01:03:39.391Z,2.97
2023-01-19T01:06:44.229Z,2.85
2023-01-19T01:09:48.632Z,2.78
2023-01-19T01:12:57.038Z,2.85
2023-01-19T01:16:02.677Z,2.90
2023-01-19T01:19:07.829Z,2.80
2023-01-19T01:22:11.837Z,2.80
2023-01-19T01:25:17.378Z,2.85
2023-01-19T01:28:20.957Z,2.58
2023-01-19T01:31:28.294Z,3.00
2023-01-19T01:34:34.945Z,2.60
2023-01-19T01:37:44.513Z,2.67
2023-01-19T01:40:50.780Z,2.85
2023-01-19T01:44:04.338Z,2.80
2023-01-19T01:47:10.683Z,2.97
2023-01-19T01:50:27.314Z,2.70
2023-01-19T01:53:38.409Z,2.50
2023-01-19T01:56:51.064Z,2.72
2023-01-19T02:00:01.443Z,2.88
2023-01-19T02:03:12.284Z,3.17
2023-01-19T02:06:22.540Z,3.20
2023-01-19T02:09:53.698Z,3.45
2023-01-19T02:13:19.130Z,3.45
2023-01-19T02:16:24.648Z,3.28
2023-01-19T02:19:36.943Z,3.72
2023-01-19T02:22:49.511Z,2.80
2023-01-19T02:25:53.698Z,3.15
2023-01-19T02:29:06.808Z,3.60
2023-01-19T02:32:14.132Z,3.65
2023-01-19T02:35:24.461Z,3.55
2023-01-19T02:38:29.578Z,3.10
2023-01-19T02:41:43.438Z,3.17
2023-01-19T02:44:54.350Z,3.45
2023-01-19T02:48:02.439Z,3.15
2023-01-19T02:51:24.839Z,3.00
2023-01-19T02:54:36.559Z,3.47
2023-01-19T02:57:57.518Z,3.10
2023-01-19T03:01:24.225Z,3.42
2023-01-19T03:05:12.706Z,3.33
2023-01-19T03:08:57.177Z,3.05
2023-01-19T03:12:16.168Z,3.63
2023-01-19T03:15:23.514Z,4.00
2023-01-19T03:18:36.014Z,4.25
2023-01-19T03:21:49.029Z,4.13
2023-01-19T03:25:01.115Z,3.85
2023-01-19T03:28:10.378Z,3.53
2023-01-19T03:31:26.737Z,3.45
2023-01-19T03:34:33.737Z,3.70
2023-01-19T03:37:46.166Z,3.50
2023-01-19T03:41:02.875Z,3.60
2023-01-19T03:44:14.301Z,3.50
2023-01-19T03:47:23.748Z,3.47
2023-01-19T03:50:31.119Z,3.65
2023-01-19T03:53:39.409Z,3.30
2023-01-19T03:56:48.415Z,4.10
2023-01-19T04:00:02.140Z,3.63
2023-01-19T04:03:20.715Z,3.60
2023-01-19T04:06:29.043Z,3.95
2023-01-19T04:09:38.487Z,3.90
2023-01-19T04:12:46.291Z,4.65
2023-01-19T04:15:53.179Z,4.50
2023-01-19T04:19:03.155Z,4.07
2023-01-19T04:22:09.751Z,5.10
2023-01-19T04:25:16.163Z,4.68
2023-01-19T04:28:22.440Z,5.32
2023-01-19T04:31:30.071Z,4.87
2023-01-19T04:34:35.786Z,5.57
2023-01-19T04:37:40.833Z,6.80
2023-01-19T04:40:45.879Z,5.40
2023-01-19T04:43:54.865Z,5.78
2023-01-19T04:47:04.454Z,5.87
2023-01-19T04:50:14.533Z,5.60
2023-01-19T04:53:20.522Z,5.88
2023-01-19T04:56:27.507Z,6.10
2023-01-19T04:59:36.978Z,6.22
2023-01-19T05:02:47.937Z,5.80
2023-01-19T05:05:55.156Z,6.88
2023-01-19T05:09:02.769Z,7.30
2023-01-19T05:12:07.705Z,7.85
2023-01-19T05:15:13.529Z,8.48
2023-01-19T05:18:22.588Z,8.67
2023-01-19T05:21:34.818Z,7.95
2023-01-19T05:24:42.257Z,9.10
2023-01-19T05:27:51.321Z,8.73
2023-01-19T05:30:58.447Z,9.52
2023-01-19T05:34:06.077Z,8.67
2023-01-19T05:37:11.658Z,10.27
2023-01-19T05:40:16.973Z,9.90
2023-01-19T05:43:24.881Z,9.90
2023-01-19T05:46:31.947Z,9.65
2023-01-19T05:49:39.282Z,10.50
2023-01-19T05:52:44.971Z,9.88
2023-01-19T05:55:50.799Z,10.57
2023-01-19T05:58:57.577Z,9.77
2023-01-19T06:02:03.180Z,9.48
2023-01-19T06:05:09.393Z,9.37
2023-01-19T06:08:15.041Z,10.10
2023-01-19T06:11:19.832Z,9.90
2023-01-19T06:14:23.407Z,8.73
2023-01-19T06:17:26.692Z,9.02
2023-01-19T06:20:30.070Z,8.50
2023-01-19T06:23:35.664Z,10.23
2023-01-19T06:26:39.778Z,11.50
2023-01-19T06:29:44.993Z,9.13
2023-01-19T06:32:48.032Z,8.27
2023-01-19T06:35:52.212Z,8.80
2023-01-19T06:38:56.411Z,7.68
2023-01-19T06:41:59.510Z,9.32
2023-01-19T06:45:02.616Z,7.45
2023-01-19T06:48:06.655Z,9.60
2023-01-19T06:51:11.736Z,7.90
2023-01-19T06:54:20.812Z,9.48
2023-01-19T06:57:23.865Z,9.00
2023-01-19T07:00:31.444Z,7.75
2023-01-19T07:04:02.094Z,11.52
2023-01-19T07:07:07.187Z,7.50
2023-01-19T07:10:16.043Z,8.63
2023-01-19T07:13:19.304Z,8.77
2023-01-19T07:16:48.061Z,7.13
2023-01-19T07:20:19.978Z,6.55
2023-01-19T07:23:24.361Z,7.53
2023-01-19T07:26:57.251Z,7.82
2023-01-19T07:30:02.624Z,8.23
2023-01-19T07:50:21.575Z,10.68
2023-01-19T07:53:24.668Z,11.38
2023-01-19T07:56:33.940Z,10.77
2023-01-19T07:59:46.847Z,10.75
2023-01-19T08:03:22.234Z,8.83
2023-01-19T08:06:57.147Z,9.35
2023-01-19T08:10:55.791Z,11.07
2023-01-19T08:14:00.351Z,9.13
2023-01-19T08:17:05.308Z,10.82
2023-01-19T08:20:35.803Z,10.30
2023-01-19T08:23:41.173Z,11.05
2023-01-19T08:32:25.084Z,11.85
2023-01-19T08:35:55.614Z,11.82
2023-01-19T08:39:27.295Z,11.47
2023-01-19T08:42:35.390Z,16.50
2023-01-19T08:46:32.204Z,12.75
2023-01-19T08:49:41.376Z,12.43
2023-01-19T08:58:35.467Z,11.60
2023-01-19T09:02:03.531Z,14.43
2023-01-19T09:11:27.686Z,17.90
2023-01-19T09:38:14.546Z,12.30
2023-01-19T09:41:23.248Z,12.73
2023-01-19T09:44:35.911Z,15.67
2023-01-19T09:47:39.896Z,11.70
2023-01-19T09:50:48.745Z,11.50
2023-01-19T09:53:52.165Z,11.15
2023-01-19T09:56:56.055Z,12.98
2023-01-19T09:59:59.991Z,12.03
2023-01-19T10:03:26.835Z,10.90
2023-01-19T10:06:37.573Z,11.57
2023-01-19T10:10:18.011Z,14.05
2023-01-19T10:13:49.165Z,11.38
2023-01-19T10:17:34.709Z,15.47
2023-01-19T10:20:48.381Z,16.35
2023-01-19T10:23:58.982Z,14.20
2023-01-19T10:27:10.678Z,27.20
2023-01-19T10:30:24.413Z,42.17
2023-01-19T10:33:28.724Z,12.87
2023-01-19T10:36:37.992Z,13.40
2023-01-19T10:39:42.312Z,12.65
2023-01-19T10:42:46.017Z,12.30
2023-01-19T10:45:50.944Z,12.77
2023-01-19T10:48:56.603Z,12.73
2023-01-19T10:52:03.770Z,14.07
2023-01-19T10:55:22.970Z,14.25
2023-01-19T10:58:31.464Z,10.43
2023-01-19T11:01:38.326Z,13.02
2023-01-19T11:04:42.791Z,16.97
2023-01-19T11:07:47.097Z,16.90
2023-01-19T11:11:03.756Z,11.35
2023-01-19T11:14:19.824Z,12.38
2023-01-19T11:17:25.991Z,12.48
2023-01-19T11:20:36.088Z,11.50
2023-01-19T11:23:51.099Z,11.55
2023-01-19T11:27:03.774Z,10.50
2023-01-19T11:30:10.731Z,10.90
2023-01-19T11:33:24.824Z,10.48
2023-01-19T11:36:37.075Z,9.70
2023-01-19T11:39:52.468Z,10.95
2023-01-19T11:42:57.114Z,14.38
2023-01-19T11:46:03.918Z,10.10
2023-01-19T11:49:39.588Z,18.20
2023-01-19T11:53:01.463Z,17.00
2023-01-19T11:56:13.555Z,17.30
2023-01-19T11:59:16.716Z,13.82
2023-01-19T12:02:30.506Z,12.45
2023-01-19T12:06:49.195Z,21.67
2023-01-19T12:10:43.718Z,11.90
2023-01-19T12:19:14.800Z,12.27
2023-01-19T12:22:18.584Z,12.30
2023-01-19T12:25:43.899Z,13.57
2023-01-19T12:29:37.007Z,13.00
2023-01-19T12:32:43.077Z,11.10
2023-01-19T12:36:02.334Z,10.45
2023-01-19T12:39:19.343Z,10.10
2023-01-19T12:42:26.845Z,16.48
2023-01-19T12:46:46.340Z,11.10
2023-01-19T12:49:54.061Z,8.90
2023-01-19T12:53:03.634Z,8.85
2023-01-19T13:02:13.281Z,8.13
2023-01-19T13:05:42.462Z,9.70
2023-01-19T13:09:43.563Z,6.85
2023-01-19T13:13:33.415Z,7.68
2023-01-19T13:17:02.592Z,8.15
2023-01-19T13:20:58.196Z,9.95
2023-01-19T13:24:06.566Z,8.73
2023-01-19T13:28:01.563Z,8.80
2023-01-19T13:31:10.324Z,8.07
2023-01-19T13:34:41.287Z,7.68
2023-01-19T13:37:48.711Z,8.27
2023-01-19T13:40:53.513Z,7.20
2023-01-19T13:44:03.468Z,7.43
2023-01-19T13:47:13.371Z,8.15
2023-01-19T13:50:29.808Z,7.32
2023-01-19T13:53:36.739Z,8.80
2023-01-19T13:56:42.087Z,8.03
2023-01-19T13:59:45.871Z,11.65
2023-01-19T14:03:21.551Z,14.50
2023-01-19T14:06:41.093Z,8.45
2023-01-19T14:09:43.827Z,8.63
2023-01-19T14:12:58.971Z,10.63
2023-01-19T14:16:08.097Z,10.45
2023-01-19T14:19:11.968Z,10.50
2023-01-19T14:23:33.876Z,13.35
2023-01-19T14:27:29.090Z,8.13
2023-01-19T14:30:36.031Z,9.87
2023-01-19T14:33:46.155Z,10.13
2023-01-19T14:36:51.769Z,9.82
2023-01-19T14:39:57.378Z,9.43
2023-01-19T14:43:05.749Z,9.15
2023-01-19T14:46:16.818Z,8.60
2023-01-19T14:49:28.345Z,14.68
2023-01-19T14:52:37.510Z,12.98
2023-01-19T14:55:52.591Z,12.65
2023-01-19T14:59:02.294Z,18.05
2023-01-19T15:02:05.368Z,11.63
2023-01-19T15:05:09.962Z,11.13
2023-01-19T15:08:40.127Z,9.75
2023-01-19T15:11:45.193Z,9.75
2023-01-19T15:14:48.135Z,10.23
2023-01-19T15:17:50.908Z,12.20
2023-01-19T15:20:55.433Z,10.00
2023-01-19T15:24:01.313Z,10.25
2023-01-19T15:27:04.131Z,9.02
2023-01-19T15:30:21.984Z,12.80
2023-01-19T15:33:30.617Z,9.87
2023-01-19T15:36:33.337Z,9.57
2023-01-19T15:39:37.057Z,10.55
2023-01-19T15:42:39.895Z,11.68
2023-01-19T15:45:50.309Z,10.63
2023-01-19T15:48:56.503Z,10.63
2023-01-19T15:51:59.465Z,9.38
2023-01-19T15:55:02.390Z,9.60
2023-01-19T15:58:05.208Z,13.32
2023-01-19T16:01:13.058Z,9.57
2023-01-19T16:04:17.932Z,12.17
2023-01-19T16:07:21.269Z,12.32
2023-01-19T16:10:24.986Z,10.32
2023-01-19T16:13:30.119Z,8.25
2023-01-19T16:16:33.931Z,7.88
2023-01-19T16:19:36.748Z,8.37
2023-01-19T16:22:40.000Z,10.30
2023-01-19T16:25:42.783Z,12.75
2023-01-19T16:28:45.560Z,10.30
2023-01-19T16:31:48.551Z,9.95
2023-01-19T16:34:51.362Z,7.37
2023-01-19T16:38:24.967Z,7.03
2023-01-19T16:41:31.678Z,9.25
2023-01-19T16:44:34.408Z,8.80
2023-01-19T16:47:37.257Z,7.35
2023-01-19T16:50:40.200Z,6.50
2023-01-19T16:53:42.941Z,6.72
2023-01-19T16:56:46.343Z,6.38
2023-01-19T16:59:50.734Z,6.95
2023-01-19T17:03:19.540Z,7.30
2023-01-19T17:06:24.365Z,6.30
2023-01-19T17:09:31.964Z,6.25
2023-01-19T17:12:35.175Z,6.40
2023-01-19T17:15:39.215Z,6.28
2023-01-19T17:18:42.264Z,6.07
2023-01-19T17:21:46.695Z,6.50
2023-01-19T17:24:50.109Z,6.38
2023-01-19T17:28:01.360Z,6.35
2023-01-19T17:31:10.994Z,6.50
2023-01-19T17:34:14.367Z,6.63
2023-01-19T17:37:42.337Z,5.43
2023-01-19T17:40:45.319Z,4.72
2023-01-19T17:43:51.305Z,5.88
2023-01-19T17:46:54.023Z,4.97
2023-01-19T17:49:56.959Z,5.45
2023-01-19T17:52:59.799Z,5.00
2023-01-19T17:56:07.957Z,5.38
2023-01-19T17:59:11.404Z,6.07
2023-01-19T18:02:15.471Z,4.95
2023-01-19T18:05:19.192Z,5.20
2023-01-19T18:08:22.196Z,5.10
2023-01-19T18:11:26.652Z,4.63
2023-01-19T18:14:30.853Z,5.85
2023-01-19T18:17:33.648Z,5.03
2023-01-19T18:21:11.132Z,4.72
2023-01-19T18:24:14.196Z,5.17
2023-01-19T18:27:18.524Z,5.68
2023-01-19T18:30:22.562Z,5.45
2023-01-19T18:34:41.411Z,5.20
2023-01-19T18:37:44.768Z,5.18
2023-01-19T18:41:06.738Z,4.67
2023-01-19T18:44:13.305Z,5.07
2023-01-19T18:47:16.351Z,5.60
2023-01-19T18:50:19.559Z,5.28
2023-01-19T18:53:23.876Z,5.85
2023-01-19T18:56:30.777Z,4.87
2023-01-19T18:59:34.052Z,4.75
2023-01-19T19:02:37.241Z,5.18
2023-01-19T19:05:41.030Z,5.22
2023-01-19T19:08:44.253Z,6.18
2023-01-19T19:12:12.422Z,5.37
2023-01-19T19:15:15.726Z,4.95
2023-01-19T19:18:18.958Z,5.28
2023-01-19T19:21:25.413Z,5.05
2023-01-19T19:24:29.349Z,5.85
2023-01-19T19:27:32.465Z,4.90
2023-01-19T19:30:37.933Z,5.90
2023-01-19T19:34:59.263Z,6.82
2023-01-19T19:38:02.689Z,5.75
2023-01-19T19:41:11.292Z,6.47
2023-01-19T19:44:40.370Z,6.20
2023-01-19T19:47:44.023Z,6.22
2023-01-19T19:51:40.411Z,6.70
2023-01-19T19:54:45.153Z,7.20
2023-01-19T19:57:48.007Z,7.22
2023-01-19T20:00:54.459Z,6.40
2023-01-19T20:04:07.937Z,6.28
2023-01-19T20:07:15.955Z,6.43
2023-01-19T20:10:48.167Z,6.13
2023-01-19T20:13:51.706Z,6.70
2023-01-19T20:17:23.325Z,5.70
2023-01-19T20:20:27.748Z,6.68
2023-01-19T20:23:30.852Z,7.82
2023-01-19T20:26:36.392Z,6.45
2023-01-19T20:29:39.598Z,6.72
2023-01-19T20:32:42.833Z,6.57
2023-01-19T20:35:46.421Z,7.63
2023-01-19T20:38:49.353Z,7.80
2023-01-19T20:41:52.770Z,5.82
2023-01-19T20:44:57.468Z,8.20
2023-01-19T20:48:00.346Z,6.93
2023-01-19T20:51:11.363Z,6.55
2023-01-19T20:54:16.896Z,6.32
2023-01-19T20:57:19.968Z,6.25
2023-01-19T21:00:22.941Z,6.32
2023-01-19T21:03:25.972Z,6.33
2023-01-19T21:06:29.256Z,6.20
2023-01-19T21:09:32.686Z,6.75
2023-01-19T21:12:35.609Z,5.93
2023-01-19T21:15:40.932Z,6.22
2023-01-19T21:18:44.397Z,6.87
2023-01-19T21:21:47.700Z,6.20
2023-01-19T21:24:50.510Z,6.13
2023-01-19T21:27:53.396Z,6.53
2023-01-19T21:30:56.586Z,6.53
2023-01-19T21:33:59.577Z,6.80
2023-01-19T21:37:02.464Z,6.32
2023-01-19T21:40:06.347Z,5.97
2023-01-19T21:43:09.122Z,5.57
2023-01-19T21:47:31.058Z,6.50
2023-01-19T21:50:34.526Z,6.20
2023-01-19T21:53:37.917Z,7.18
2023-01-19T21:56:43.274Z,7.05
2023-01-19T21:59:46.251Z,6.57
2023-01-19T22:03:02.745Z,7.35
2023-01-19T22:06:08.716Z,5.90
2023-01-19T22:09:11.589Z,6.65
2023-01-19T22:12:16.340Z,6.53
2023-01-19T22:16:10.965Z,6.60
2023-01-19T22:19:14.559Z,6.50
2023-01-19T22:22:17.366Z,6.80
2023-01-19T22:25:26.297Z,6.70
2023-01-19T22:28:29.241Z,8.02
2023-01-19T22:31:32.555Z,8.82
2023-01-19T22:34:35.604Z,8.70
2023-01-19T22:37:38.433Z,7.40
2023-01-19T22:45:55.906Z,10.18
2023-01-19T22:49:03.074Z,9.63
2023-01-19T22:52:06.099Z,10.50
2023-01-19T22:55:09.402Z,9.00
2023-01-19T22:58:37.276Z,8.80
2023-01-19T23:06:29.719Z,7.88
2023-01-19T23:09:59.081Z,7.40
2023-01-19T23:13:01.991Z,6.50
2023-01-19T23:16:05.761Z,6.25
2023-01-19T23:20:05.162Z,6.05
2023-01-19T23:23:08.060Z,5.78
2023-01-19T23:26:17.351Z,7.00
2023-01-19T23:29:24.276Z,7.23
2023-01-19T23:32:27.048Z,6.75
2023-01-19T23:35:29.872Z,7.05
2023-01-19T23:39:06.282Z,7.28
2023-01-19T23:42:09.321Z,6.75
2023-01-19T23:45:12.882Z,6.40
2023-01-19T23:48:16.027Z,6.78
2023-01-19T23:51:28.119Z,6.47
2023-01-19T23:54:31.039Z,6.00
2023-01-19T23:57:34.007Z,6.85
